Terminal Aerodrome Forecast
Issued by NWS

Home | Current Version | Previous Version | Text Only | Print | Product List | Glossary On
Versions: 1 2 3 4 5 6 7 8 9 10 11 12
000
FTUS42 TJSJ 010500
TAFJSJ
TAF
TJSJ 010540Z 0106/0206 09008KT P6SM VCSH SCT025 SCT060
     FM011330 08012KT P6SM FEW030 SCT050
     FM011730 08015KT P6SM VCSH SCT030 BKN050
     FM012330 09008KT P6SM SCT025=

USA.gov is the U.S. government's official web portal to all federal, state and local government web resources and services.